createdAt,value
2015-07-30T00:00:08.862Z,646
2015-07-30T00:00:27.268Z,646
2015-07-30T00:00:45.645Z,646
2015-07-30T00:01:04.160Z,646
2015-07-30T00:01:22.582Z,646
2015-07-30T00:01:41.035Z,646
2015-07-30T00:01:59.491Z,646
2015-07-30T00:02:17.975Z,646
2015-07-30T00:02:36.600Z,646
2015-07-30T00:02:55.071Z,646
2015-07-30T00:03:13.493Z,646
2015-07-30T00:03:32.039Z,646
2015-07-30T00:03:50.633Z,646
2015-07-30T00:04:09.229Z,646
2015-07-30T00:04:27.666Z,646
2015-07-30T00:04:46.073Z,646
2015-07-30T00:05:04.731Z,646
2015-07-30T00:05:23.122Z,646
2015-07-30T00:05:41.512Z,646
2015-07-30T00:06:00.247Z,646
2015-07-30T00:06:18.717Z,646
2015-07-30T00:06:36.655Z,646
2015-07-30T00:06:55.249Z,646
2015-07-30T00:07:13.627Z,646
2015-07-30T00:07:32.205Z,646
2015-07-30T00:07:50.845Z,646
2015-07-30T00:08:09.236Z,646
2015-07-30T00:08:27.222Z,646
2015-07-30T00:08:45.629Z,646
2015-07-30T00:09:04.066Z,646
2015-07-30T00:09:22.693Z,646
2015-07-30T00:09:41.162Z,646
2015-07-30T00:09:59.740Z,646
2015-07-30T00:10:18.224Z,646
2015-07-30T00:10:36.741Z,646
2015-07-30T00:10:55.319Z,646
2015-07-30T00:11:13.975Z,646
2015-07-30T00:11:32.369Z,646
2015-07-30T00:11:50.260Z,646
2015-07-30T00:12:08.853Z,646
2015-07-30T00:12:27.353Z,646
2015-07-30T00:12:45.792Z,646
2015-07-30T00:13:04.386Z,646
2015-07-30T00:13:23.229Z,646
2015-07-30T00:13:41.841Z,646
2015-07-30T00:14:00.247Z,646
2015-07-30T00:14:18.669Z,646
2015-07-30T00:14:37.059Z,646
2015-07-30T00:14:55.578Z,646
2015-07-30T00:15:13.984Z,646
2015-07-30T00:15:32.391Z,646
2015-07-30T00:15:51.033Z,646
2015-07-30T00:16:09.455Z,646
2015-07-30T00:16:28.127Z,646
2015-07-30T00:16:46.502Z,646
2015-07-30T00:17:05.051Z,646
2015-07-30T00:17:23.676Z,646
2015-07-30T00:17:42.160Z,646
2015-07-30T00:18:00.678Z,646
2015-07-30T00:18:19.131Z,646
2015-07-30T00:18:37.709Z,645
2015-07-30T00:18:56.084Z,646
2015-07-30T00:19:14.586Z,646
2015-07-30T00:19:33.055Z,645
2015-07-30T00:19:51.586Z,645
2015-07-30T00:20:09.994Z,645
2015-07-30T00:20:28.463Z,645
2015-07-30T00:20:47.119Z,645
2015-07-30T00:21:05.588Z,645
2015-07-30T00:21:24.513Z,645
2015-07-30T00:21:43.060Z,645
2015-07-30T00:22:01.544Z,645
2015-07-30T00:22:19.998Z,645
2015-07-30T00:22:38.592Z,645
2015-07-30T00:22:57.108Z,645
2015-07-30T00:23:15.545Z,645
2015-07-30T00:23:34.172Z,645
2015-07-30T00:23:52.813Z,645
2015-07-30T00:24:11.735Z,645
2015-07-30T00:24:30.174Z,645
2015-07-30T00:24:48.612Z,645
2015-07-30T00:25:07.190Z,645
2015-07-30T00:25:25.705Z,645
2015-07-30T00:25:44.083Z,645
2015-07-30T00:26:02.677Z,645
2015-07-30T00:26:21.052Z,645
2015-07-30T00:26:39.648Z,645
2015-07-30T00:26:58.304Z,645
2015-07-30T00:27:16.710Z,645
2015-07-30T00:27:35.414Z,645
2015-07-30T00:27:53.884Z,645
2015-07-30T00:28:12.416Z,645
2015-07-30T00:28:30.853Z,645
2015-07-30T00:28:49.385Z,645
2015-07-30T00:29:07.885Z,645
2015-07-30T00:29:26.495Z,645
2015-07-30T00:29:44.870Z,645
2015-07-30T00:30:03.279Z,645
2015-07-30T00:30:21.857Z,645
2015-07-30T00:30:40.232Z,645
2015-07-30T00:30:59.000Z,645
2015-07-30T00:31:17.281Z,645
2015-07-30T00:31:36.000Z,645
2015-07-30T00:31:54.765Z,645
2015-07-30T00:32:13.221Z,645
2015-07-30T00:32:32.096Z,645
2015-07-30T00:32:50.487Z,645
2015-07-30T00:33:08.957Z,645
2015-07-30T00:33:27.457Z,645
2015-07-30T00:33:46.113Z,645
2015-07-30T00:34:04.597Z,645
2015-07-30T00:34:23.085Z,645
2015-07-30T00:34:41.679Z,645
2015-07-30T00:35:00.163Z,645
2015-07-30T00:35:18.680Z,645
2015-07-30T00:35:37.226Z,645
2015-07-30T00:35:55.601Z,645
2015-07-30T00:36:14.148Z,645
2015-07-30T00:36:32.760Z,645
2015-07-30T00:36:50.728Z,645
2015-07-30T00:37:09.166Z,645
2015-07-30T00:37:27.621Z,645
2015-07-30T00:37:46.152Z,645
2015-07-30T00:38:04.559Z,645
2015-07-30T00:38:22.980Z,645
2015-07-30T00:38:41.373Z,645
2015-07-30T00:38:59.748Z,645
2015-07-30T00:39:17.561Z,645
2015-07-30T00:39:35.954Z,645
2015-07-30T00:39:54.392Z,645
2015-07-30T00:40:13.017Z,645
2015-07-30T00:40:31.501Z,644
2015-07-30T00:40:49.987Z,644
2015-07-30T00:41:08.628Z,645
2015-07-30T00:41:27.128Z,645
2015-07-30T00:41:44.880Z,645
2015-07-30T00:42:03.411Z,644
2015-07-30T00:42:21.818Z,645
2015-07-30T00:42:40.302Z,645
2015-07-30T00:42:58.819Z,645
2015-07-30T00:43:17.334Z,644
2015-07-30T00:43:35.819Z,644
2015-07-30T00:43:54.650Z,644
2015-07-30T00:44:13.040Z,645
2015-07-30T00:44:31.462Z,645
2015-07-30T00:44:49.697Z,644
2015-07-30T00:45:08.136Z,645
2015-07-30T00:45:26.527Z,645
2015-07-30T00:45:45.230Z,645
2015-07-30T00:46:03.919Z,644
2015-07-30T00:46:22.529Z,644
2015-07-30T00:46:41.044Z,645
2015-07-30T00:46:59.419Z,644
2015-07-30T00:47:17.999Z,645
2015-07-30T00:47:36.640Z,645
2015-07-30T00:47:55.015Z,644
2015-07-30T00:48:13.642Z,644
2015-07-30T00:48:32.298Z,644
2015-07-30T00:48:50.814Z,644
2015-07-30T00:49:09.345Z,644
2015-07-30T00:49:27.753Z,645
2015-07-30T00:49:46.300Z,645
2015-07-30T00:50:05.097Z,644
2015-07-30T00:50:23.490Z,645
2015-07-30T00:50:42.037Z,644
2015-07-30T00:51:00.490Z,644
2015-07-30T00:51:19.130Z,644
2015-07-30T00:51:37.508Z,644
2015-07-30T00:51:56.149Z,644
2015-07-30T00:52:14.837Z,644
2015-07-30T00:52:33.306Z,644
2015-07-30T00:52:51.994Z,644
2015-07-30T00:53:10.541Z,644
2015-07-30T00:53:29.009Z,644
2015-07-30T00:53:47.512Z,644
2015-07-30T00:54:06.247Z,644
2015-07-30T00:54:24.653Z,644
2015-07-30T00:54:43.029Z,644
2015-07-30T00:55:01.592Z,644
2015-07-30T00:55:20.092Z,644
2015-07-30T00:55:38.685Z,644
2015-07-30T00:55:57.110Z,644
2015-07-30T00:56:15.641Z,644
2015-07-30T00:56:34.016Z,644
2015-07-30T00:56:52.439Z,644
2015-07-30T00:57:10.877Z,644
2015-07-30T00:57:28.705Z,644
2015-07-30T00:57:47.299Z,644
2015-07-30T00:58:05.770Z,644
2015-07-30T00:58:24.161Z,644
2015-07-30T00:58:42.599Z,644
2015-07-30T00:59:01.021Z,644
2015-07-30T00:59:19.537Z,644
2015-07-30T00:59:38.162Z,644
2015-07-30T00:59:56.693Z,644
2015-07-30T01:00:15.321Z,644
2015-07-30T01:00:33.868Z,644
2015-07-30T01:00:52.696Z,644
2015-07-30T01:01:11.995Z,644
2015-07-30T01:01:32.308Z,644
2015-07-30T01:01:51.620Z,644
2015-07-30T01:02:11.309Z,644
2015-07-30T01:02:31.637Z,644
2015-07-30T01:02:50.699Z,644
2015-07-30T01:03:11.640Z,644
2015-07-30T01:03:30.452Z,644
2015-07-30T01:03:48.937Z,644
2015-07-30T01:04:07.687Z,644
2015-07-30T01:04:26.204Z,644
2015-07-30T01:04:44.579Z,644
2015-07-30T01:05:03.157Z,644
2015-07-30T01:05:21.705Z,644
2015-07-30T01:05:40.440Z,644
2015-07-30T01:05:58.846Z,644
2015-07-30T01:06:17.440Z,644
2015-07-30T01:06:35.833Z,644
2015-07-30T01:06:54.286Z,644
2015-07-30T01:07:12.724Z,644
2015-07-30T01:07:31.429Z,644
2015-07-30T01:07:49.913Z,644
2015-07-30T01:08:08.585Z,644
2015-07-30T01:08:27.132Z,644
2015-07-30T01:08:45.995Z,644
2015-07-30T01:09:04.401Z,644
2015-07-30T01:09:22.932Z,644
2015-07-30T01:09:41.386Z,644
2015-07-30T01:09:59.949Z,644
2015-07-30T01:10:18.402Z,644
2015-07-30T01:10:36.871Z,644
2015-07-30T01:10:55.295Z,644
2015-07-30T01:11:13.858Z,644
2015-07-30T01:11:32.249Z,644
2015-07-30T01:11:50.688Z,644
2015-07-30T01:12:09.172Z,644
2015-07-30T01:12:27.813Z,644
2015-07-30T01:12:46.047Z,644
2015-07-30T01:13:04.565Z,644
2015-07-30T01:13:22.987Z,644
2015-07-30T01:13:41.440Z,644
2015-07-30T01:14:00.036Z,644
2015-07-30T01:14:42.145Z,644
2015-07-30T01:15:00.771Z,644
2015-07-30T01:15:19.302Z,644
2015-07-30T01:15:37.881Z,644
2015-07-30T01:15:56.318Z,644
2015-07-30T01:16:14.962Z,644
2015-07-30T01:16:33.352Z,644
2015-07-30T01:16:51.727Z,644
2015-07-30T01:17:10.136Z,644
2015-07-30T01:17:28.526Z,643
2015-07-30T01:17:47.120Z,643
2015-07-30T01:18:05.807Z,644
2015-07-30T01:18:24.497Z,644
2015-07-30T01:18:42.497Z,643
2015-07-30T01:19:01.122Z,644
2015-07-30T01:19:19.718Z,643
2015-07-30T01:19:38.171Z,643
2015-07-30T01:19:57.015Z,643
2015-07-30T01:20:15.671Z,644
2015-07-30T01:20:34.626Z,643
2015-07-30T01:20:53.298Z,643
2015-07-30T01:21:11.767Z,643
2015-07-30T01:21:30.659Z,644
2015-07-30T01:21:49.144Z,643
2015-07-30T01:22:07.612Z,643
2015-07-30T01:22:26.081Z,643
2015-07-30T01:22:44.677Z,643
2015-07-30T01:23:03.161Z,643
2015-07-30T01:23:21.864Z,643
2015-07-30T01:23:40.788Z,643
2015-07-30T01:23:59.444Z,643
2015-07-30T01:24:18.038Z,643
2015-07-30T01:24:36.743Z,643
2015-07-30T01:24:55.134Z,643
2015-07-30T01:25:13.821Z,643
2015-07-30T01:25:32.353Z,643
2015-07-30T01:25:51.011Z,643
2015-07-30T01:26:09.558Z,643
2015-07-30T01:26:27.995Z,643
2015-07-30T01:26:46.466Z,643
2015-07-30T01:27:05.169Z,643
2015-07-30T01:27:23.560Z,643
2015-07-30T01:27:41.982Z,643
2015-07-30T01:28:00.640Z,643
2015-07-30T01:28:19.015Z,643
2015-07-30T01:28:37.609Z,643
2015-07-30T01:28:56.189Z,643
2015-07-30T01:29:14.595Z,643
2015-07-30T01:29:33.126Z,643
2015-07-30T01:29:51.798Z,643
2015-07-30T01:30:10.551Z,643
2015-07-30T01:30:29.286Z,643
2015-07-30T01:30:47.817Z,643
2015-07-30T01:31:06.334Z,643
2015-07-30T01:31:25.194Z,643
2015-07-30T01:31:43.631Z,643
2015-07-30T01:32:02.445Z,643
2015-07-30T01:32:21.070Z,643
2015-07-30T01:32:39.523Z,643
2015-07-30T01:32:57.929Z,643
2015-07-30T01:33:16.572Z,643
2015-07-30T01:33:35.009Z,643
2015-07-30T01:33:53.400Z,643
2015-07-30T01:34:11.902Z,643
2015-07-30T01:34:30.339Z,643
2015-07-30T01:34:48.886Z,643
2015-07-30T01:35:07.402Z,643
2015-07-30T01:35:25.764Z,643
2015-07-30T01:35:44.202Z,643
2015-07-30T01:36:02.686Z,643
2015-07-30T01:36:21.172Z,643
2015-07-30T01:36:39.609Z,643
2015-07-30T01:36:58.047Z,643
2015-07-30T01:37:16.500Z,643
2015-07-30T01:37:35.221Z,643
2015-07-30T01:37:53.690Z,643
2015-07-30T01:38:12.096Z,643
2015-07-30T01:38:30.489Z,643
2015-07-30T01:38:48.942Z,643
2015-07-30T01:39:07.442Z,642
2015-07-30T01:39:25.942Z,643
2015-07-30T01:39:44.585Z,642
2015-07-30T01:40:03.163Z,643
2015-07-30T01:40:21.616Z,643
2015-07-30T01:40:40.040Z,643
2015-07-30T01:40:58.681Z,643
2015-07-30T01:41:17.196Z,643
2015-07-30T01:41:35.837Z,643
2015-07-30T01:41:54.214Z,642
2015-07-30T01:42:13.104Z,642
2015-07-30T01:42:31.698Z,642
2015-07-30T01:42:50.074Z,642
2015-07-30T01:43:08.809Z,642
2015-07-30T01:43:27.262Z,642
2015-07-30T01:43:45.777Z,642
2015-07-30T01:44:04.171Z,642
2015-07-30T01:44:23.202Z,642
2015-07-30T01:44:41.655Z,642
2015-07-30T01:44:59.392Z,642
2015-07-30T01:45:17.860Z,642
2015-07-30T01:45:36.454Z,642
2015-07-30T01:45:54.970Z,642
2015-07-30T01:46:13.597Z,642
2015-07-30T01:46:32.019Z,642
2015-07-30T01:46:50.597Z,642
2015-07-30T01:47:09.021Z,642
2015-07-30T01:47:26.771Z,642
2015-07-30T01:47:45.161Z,642
2015-07-30T01:48:03.755Z,642
2015-07-30T01:48:22.382Z,643
2015-07-30T01:48:40.882Z,643
2015-07-30T01:48:59.351Z,642
2015-07-30T01:49:18.165Z,642
2015-07-30T01:49:36.806Z,642
2015-07-30T01:49:55.337Z,642
2015-07-30T01:50:13.915Z,642
2015-07-30T01:50:32.308Z,642
2015-07-30T01:50:50.714Z,642
2015-07-30T01:51:09.574Z,642
2015-07-30T01:51:28.092Z,642
2015-07-30T01:51:46.545Z,642
2015-07-30T01:52:04.952Z,642
2015-07-30T01:52:23.530Z,642
2015-07-30T01:52:42.235Z,642
2015-07-30T01:53:01.047Z,642
2015-07-30T01:53:19.469Z,642
2015-07-30T01:53:38.206Z,642
2015-07-30T01:53:56.581Z,642
2015-07-30T01:54:15.174Z,642
2015-07-30T01:54:33.674Z,642
2015-07-30T01:54:52.441Z,642
2015-07-30T01:55:11.003Z,643
2015-07-30T01:55:29.800Z,642
2015-07-30T01:55:48.412Z,642
2015-07-30T01:56:06.912Z,642
2015-07-30T01:56:25.349Z,642
2015-07-30T01:56:43.927Z,642
2015-07-30T01:57:02.680Z,642
2015-07-30T01:57:21.118Z,642
2015-07-30T01:57:39.649Z,642
2015-07-30T01:57:58.057Z,642
2015-07-30T01:58:16.698Z,642
2015-07-30T01:58:35.104Z,642
2015-07-30T01:58:53.854Z,642
2015-07-30T01:59:12.622Z,642
2015-07-30T01:59:31.028Z,642
2015-07-30T01:59:49.512Z,642
2015-07-30T02:00:08.046Z,642
2015-07-30T02:00:26.421Z,642
2015-07-30T02:00:44.968Z,642
2015-07-30T02:01:03.468Z,642
2015-07-30T02:01:22.235Z,642
2015-07-30T02:01:40.845Z,642
2015-07-30T02:01:59.376Z,642
2015-07-30T02:02:18.034Z,642
2015-07-30T02:02:36.440Z,642
2015-07-30T02:02:54.831Z,642
2015-07-30T02:03:13.597Z,642
2015-07-30T02:03:32.364Z,642
2015-07-30T02:03:50.958Z,642
2015-07-30T02:04:09.442Z,642
2015-07-30T02:04:28.022Z,642
2015-07-30T02:04:46.397Z,642
2015-07-30T02:05:05.241Z,642
2015-07-30T02:05:24.087Z,642
2015-07-30T02:05:42.509Z,642
2015-07-30T02:06:01.118Z,642
2015-07-30T02:06:19.774Z,642
2015-07-30T02:06:38.152Z,642
2015-07-30T02:06:56.981Z,642
2015-07-30T02:07:15.652Z,642
2015-07-30T02:07:34.028Z,642
2015-07-30T02:07:52.403Z,642
2015-07-30T02:08:11.153Z,642
2015-07-30T02:08:29.841Z,642
2015-07-30T02:08:48.219Z,642
2015-07-30T02:09:06.703Z,642
2015-07-30T02:09:25.172Z,642
2015-07-30T02:09:43.549Z,642
2015-07-30T02:10:02.002Z,642
2015-07-30T02:10:20.362Z,642
2015-07-30T02:10:38.768Z,642
2015-07-30T02:10:57.159Z,642
2015-07-30T02:11:15.581Z,642
2015-07-30T02:11:34.019Z,642
2015-07-30T02:11:52.630Z,642
2015-07-30T02:12:11.115Z,642
2015-07-30T02:12:29.740Z,642
2015-07-30T02:12:48.130Z,642
2015-07-30T02:13:06.538Z,642
2015-07-30T02:13:24.929Z,642
2015-07-30T02:13:43.585Z,642
2015-07-30T02:14:02.135Z,642
2015-07-30T02:14:20.682Z,642
2015-07-30T02:14:39.166Z,642
2015-07-30T02:14:57.901Z,642
2015-07-30T02:15:16.278Z,642
2015-07-30T02:15:35.075Z,642
2015-07-30T02:15:53.450Z,642
2015-07-30T02:16:11.952Z,642
2015-07-30T02:16:30.358Z,642
2015-07-30T02:16:48.936Z,642
2015-07-30T02:17:07.436Z,642
2015-07-30T02:17:26.127Z,642
2015-07-30T02:17:44.517Z,642
2015-07-30T02:18:03.236Z,642
2015-07-30T02:18:21.596Z,642
2015-07-30T02:18:40.237Z,642
2015-07-30T02:18:58.924Z,642
2015-07-30T02:19:17.581Z,642
2015-07-30T02:19:36.364Z,642
2015-07-30T02:19:54.786Z,642
2015-07-30T02:20:13.301Z,642
2015-07-30T02:20:31.710Z,642
2015-07-30T02:20:50.616Z,642
2015-07-30T02:21:09.147Z,642
2015-07-30T02:21:27.522Z,642
2015-07-30T02:21:45.946Z,642
2015-07-30T02:22:04.399Z,642
2015-07-30T02:22:22.915Z,642
2015-07-30T02:22:41.307Z,642
2015-07-30T02:22:59.886Z,642
2015-07-30T02:23:18.339Z,641
2015-07-30T02:23:37.167Z,641
2015-07-30T02:23:55.560Z,641
2015-07-30T02:24:13.951Z,641
2015-07-30T02:24:32.685Z,642
2015-07-30T02:24:51.140Z,642
2015-07-30T02:25:09.515Z,641
2015-07-30T02:25:27.890Z,642
2015-07-30T02:25:46.280Z,642
2015-07-30T02:26:04.643Z,642
2015-07-30T02:26:23.314Z,642
2015-07-30T02:26:41.830Z,642
2015-07-30T02:27:00.520Z,642
2015-07-30T02:27:18.926Z,642
2015-07-30T02:27:37.504Z,642
2015-07-30T02:27:55.879Z,642
2015-07-30T02:28:14.303Z,642
2015-07-30T02:28:32.693Z,642
2015-07-30T02:28:51.412Z,642
2015-07-30T02:29:09.789Z,642
2015-07-30T02:29:28.164Z,642
2015-07-30T02:29:46.555Z,642
2015-07-30T02:30:04.961Z,642
2015-07-30T02:30:23.369Z,642
2015-07-30T02:30:41.760Z,642
2015-07-30T02:31:00.213Z,642
2015-07-30T02:31:18.590Z,642
2015-07-30T02:31:37.121Z,642
2015-07-30T02:31:55.559Z,642
2015-07-30T02:32:13.965Z,642
2015-07-30T02:32:32.405Z,642
2015-07-30T02:32:50.920Z,642
2015-07-30T02:33:09.311Z,642
2015-07-30T02:33:27.688Z,641
2015-07-30T02:33:46.485Z,642
2015-07-30T02:34:05.016Z,641
2015-07-30T02:34:23.469Z,641
2015-07-30T02:34:41.987Z,642
2015-07-30T02:35:00.471Z,641
2015-07-30T02:35:19.002Z,642
2015-07-30T02:35:37.489Z,641
2015-07-30T02:35:55.895Z,641
2015-07-30T02:36:14.348Z,641
2015-07-30T02:36:32.832Z,642
2015-07-30T02:36:51.320Z,642
2015-07-30T02:37:10.039Z,642
2015-07-30T02:37:28.507Z,642
2015-07-30T02:37:46.993Z,641
2015-07-30T02:38:05.493Z,641
2015-07-30T02:38:23.977Z,641
2015-07-30T02:38:42.383Z,642
2015-07-30T02:39:00.918Z,642
2015-07-30T02:39:19.355Z,641
2015-07-30T02:39:37.777Z,641
2015-07-30T02:39:56.451Z,642
2015-07-30T02:40:15.076Z,642
2015-07-30T02:40:33.623Z,641
2015-07-30T02:40:52.076Z,642
2015-07-30T02:41:10.624Z,641
2015-07-30T02:41:29.077Z,642
2015-07-30T02:41:47.671Z,641
2015-07-30T02:42:06.142Z,641
2015-07-30T02:42:24.736Z,641
2015-07-30T02:42:43.174Z,641
2015-07-30T02:43:01.674Z,641
2015-07-30T02:43:20.051Z,641
2015-07-30T02:43:38.457Z,641
2015-07-30T02:43:56.926Z,641
2015-07-30T02:44:15.303Z,641
2015-07-30T02:44:34.131Z,641
2015-07-30T02:44:52.709Z,641
2015-07-30T02:45:11.443Z,641
2015-07-30T02:45:30.211Z,641
2015-07-30T02:45:48.773Z,641
2015-07-30T02:46:07.195Z,641
2015-07-30T02:46:25.822Z,641
2015-07-30T02:46:44.432Z,641
2015-07-30T02:47:03.244Z,641
2015-07-30T02:47:21.744Z,641
2015-07-30T02:47:40.402Z,641
2015-07-30T02:47:59.059Z,641
2015-07-30T02:48:17.621Z,641
2015-07-30T02:48:36.139Z,641
2015-07-30T02:48:54.857Z,641
2015-07-30T02:49:13.404Z,641
2015-07-30T02:49:31.779Z,641
2015-07-30T02:49:50.344Z,641
2015-07-30T02:50:08.844Z,642
2015-07-30T02:50:27.406Z,641
2015-07-30T02:50:45.815Z,641
2015-07-30T02:51:04.330Z,641
2015-07-30T02:51:22.752Z,641
2015-07-30T02:51:41.174Z,641
2015-07-30T02:51:59.630Z,641
2015-07-30T02:52:18.302Z,641
2015-07-30T02:52:36.833Z,641
2015-07-30T02:52:55.320Z,641
2015-07-30T02:53:13.913Z,641
2015-07-30T02:53:32.445Z,641
2015-07-30T02:53:50.851Z,641
2015-07-30T02:54:09.368Z,641
2015-07-30T02:54:27.993Z,641
2015-07-30T02:54:46.493Z,641
2015-07-30T02:55:04.916Z,641
2015-07-30T02:55:23.291Z,641
2015-07-30T02:55:41.994Z,641
2015-07-30T02:56:00.448Z,641
2015-07-30T02:56:18.919Z,640
2015-07-30T02:56:37.294Z,641
2015-07-30T02:56:55.888Z,640
2015-07-30T02:57:14.358Z,641
2015-07-30T02:57:33.014Z,640
2015-07-30T02:57:51.577Z,641
2015-07-30T02:58:10.264Z,640
2015-07-30T02:58:28.673Z,640
2015-07-30T02:58:47.126Z,640
2015-07-30T02:59:05.595Z,640
2015-07-30T02:59:24.285Z,640
2015-07-30T02:59:42.769Z,640
2015-07-30T03:00:01.410Z,640
2015-07-30T03:00:19.988Z,640
2015-07-30T03:00:38.630Z,640
2015-07-30T03:00:57.068Z,640
2015-07-30T03:01:15.630Z,640
2015-07-30T03:01:34.054Z,640
2015-07-30T03:01:52.648Z,640
2015-07-30T03:02:11.117Z,640
2015-07-30T03:02:29.836Z,640
2015-07-30T03:02:48.323Z,640
2015-07-30T03:03:06.729Z,640
2015-07-30T03:03:25.167Z,640
2015-07-30T03:03:43.980Z,640
2015-07-30T03:04:02.433Z,640
2015-07-30T03:04:20.886Z,640
2015-07-30T03:04:39.293Z,640
2015-07-30T03:04:57.967Z,640
2015-07-30T03:05:16.373Z,640
2015-07-30T03:05:35.248Z,640
2015-07-30T03:05:53.719Z,640
2015-07-30T03:06:12.672Z,639
2015-07-30T03:06:31.094Z,640
2015-07-30T03:06:49.562Z,640
2015-07-30T03:07:08.300Z,640
2015-07-30T03:07:27.112Z,640
2015-07-30T03:07:45.550Z,640
2015-07-30T03:08:03.988Z,640
2015-07-30T03:08:22.394Z,640
2015-07-30T03:08:40.785Z,640
2015-07-30T03:08:59.535Z,640
2015-07-30T03:09:18.179Z,640
2015-07-30T03:09:36.819Z,639
2015-07-30T03:09:55.304Z,639
2015-07-30T03:10:13.758Z,639
2015-07-30T03:10:32.445Z,640
2015-07-30T03:10:50.992Z,639
2015-07-30T03:11:09.836Z,639
2015-07-30T03:11:28.245Z,639
2015-07-30T03:11:46.995Z,639
2015-07-30T03:12:05.558Z,639
2015-07-30T03:12:24.044Z,639
2015-07-30T03:12:42.669Z,639
2015-07-30T03:13:01.325Z,640
2015-07-30T03:13:19.903Z,639
2015-07-30T03:13:38.327Z,640
2015-07-30T03:13:57.077Z,639
2015-07-30T03:14:15.484Z,639
2015-07-30T03:14:34.048Z,639
2015-07-30T03:14:52.579Z,640
2015-07-30T03:15:11.048Z,639
2015-07-30T03:15:29.689Z,640
2015-07-30T03:15:48.159Z,640
2015-07-30T03:16:06.753Z,640
2015-07-30T03:16:25.253Z,639
2015-07-30T03:16:44.052Z,640
2015-07-30T03:17:02.802Z,640
2015-07-30T03:17:21.474Z,639
2015-07-30T03:17:40.099Z,640
2015-07-30T03:17:58.601Z,640
2015-07-30T03:18:17.070Z,640
2015-07-30T03:18:35.492Z,640
2015-07-30T03:18:53.962Z,640
2015-07-30T03:19:12.415Z,640
2015-07-30T03:19:31.244Z,640
2015-07-30T03:19:50.056Z,639
2015-07-30T03:20:08.542Z,640
2015-07-30T03:20:26.933Z,639
2015-07-30T03:20:45.339Z,639
2015-07-30T03:21:03.983Z,639
2015-07-30T03:21:22.374Z,639
2015-07-30T03:21:40.874Z,639
2015-07-30T03:21:59.374Z,639
2015-07-30T03:22:17.938Z,639
2015-07-30T03:22:36.516Z,639
2015-07-30T03:22:55.001Z,639
2015-07-30T03:23:13.424Z,639
2015-07-30T03:23:32.081Z,639
2015-07-30T03:23:50.737Z,639
2015-07-30T03:24:09.096Z,639
2015-07-30T03:24:27.925Z,639
2015-07-30T03:24:46.363Z,639
2015-07-30T03:25:04.738Z,639
2015-07-30T03:25:23.241Z,639
2015-07-30T03:25:41.772Z,639
2015-07-30T03:26:00.225Z,639
2015-07-30T03:26:18.866Z,639
2015-07-30T03:26:37.305Z,639
2015-07-30T03:26:55.712Z,639
2015-07-30T03:27:14.446Z,639
2015-07-30T03:27:32.901Z,639
2015-07-30T03:27:51.464Z,639
2015-07-30T03:28:09.886Z,639
2015-07-30T03:28:28.401Z,639
2015-07-30T03:28:46.778Z,639
2015-07-30T03:29:05.481Z,639
2015-07-30T03:29:24.372Z,639
2015-07-30T03:29:42.811Z,639
2015-07-30T03:30:01.186Z,639
2015-07-30T03:30:19.671Z,639
2015-07-30T03:30:38.124Z,639
2015-07-30T03:30:56.767Z,639
2015-07-30T03:31:15.188Z,639
2015-07-30T03:31:33.657Z,639
2015-07-30T03:31:51.895Z,639
2015-07-30T03:32:10.582Z,639
2015-07-30T03:32:29.051Z,639
2015-07-30T03:32:47.629Z,639
2015-07-30T03:33:06.428Z,639
2015-07-30T03:33:25.084Z,639
2015-07-30T03:33:43.693Z,639
2015-07-30T03:34:02.227Z,639
2015-07-30T03:34:20.664Z,639
2015-07-30T03:34:39.039Z,639
2015-07-30T03:34:57.758Z,639
2015-07-30T03:35:16.197Z,639
2015-07-30T03:35:34.932Z,639
2015-07-30T03:35:53.479Z,639
2015-07-30T03:36:12.198Z,639
2015-07-30T03:36:30.667Z,639
2015-07-30T03:36:49.120Z,639
2015-07-30T03:37:07.620Z,639
2015-07-30T03:37:26.060Z,639
2015-07-30T03:37:44.638Z,639
2015-07-30T03:38:03.575Z,639
2015-07-30T03:38:22.203Z,639
2015-07-30T03:38:40.703Z,639
2015-07-30T03:38:59.063Z,639
2015-07-30T03:39:17.578Z,639
2015-07-30T03:39:36.127Z,639
2015-07-30T03:39:54.502Z,639
2015-07-30T03:40:13.252Z,639
2015-07-30T03:40:31.645Z,639
2015-07-30T03:40:50.082Z,639
2015-07-30T03:41:08.520Z,639
2015-07-30T03:41:27.020Z,639
2015-07-30T03:41:45.522Z,639
2015-07-30T03:42:03.913Z,639
2015-07-30T03:42:22.413Z,639
2015-07-30T03:42:40.915Z,638
2015-07-30T03:42:59.915Z,638
2015-07-30T03:43:18.352Z,638
2015-07-30T03:43:36.805Z,638
2015-07-30T03:43:55.198Z,638
2015-07-30T03:44:13.729Z,639
2015-07-30T03:44:32.323Z,638
2015-07-30T03:44:50.637Z,638
2015-07-30T03:45:09.200Z,638
2015-07-30T03:45:27.762Z,638
2015-07-30T03:45:46.356Z,638
2015-07-30T03:46:05.077Z,638
2015-07-30T03:46:23.530Z,638
2015-07-30T03:46:42.046Z,638
2015-07-30T03:47:00.516Z,638
2015-07-30T03:47:19.204Z,638
2015-07-30T03:47:37.688Z,638
2015-07-30T03:47:56.329Z,638
2015-07-30T03:48:14.784Z,638
2015-07-30T03:48:33.175Z,638
2015-07-30T03:48:51.581Z,638
2015-07-30T03:49:09.973Z,638
2015-07-30T03:49:28.536Z,638
2015-07-30T03:49:47.083Z,638
2015-07-30T03:50:05.552Z,638
2015-07-30T03:50:24.398Z,638
2015-07-30T03:50:43.133Z,638
2015-07-30T03:51:01.617Z,639
2015-07-30T03:51:20.291Z,638
2015-07-30T03:51:38.713Z,638
2015-07-30T03:51:57.244Z,638
2015-07-30T03:52:15.682Z,638
2015-07-30T03:52:34.121Z,638
2015-07-30T03:52:52.652Z,638
2015-07-30T03:53:10.918Z,638
2015-07-30T03:53:29.529Z,638
2015-07-30T03:53:48.045Z,638
2015-07-30T03:54:06.326Z,638
2015-07-30T03:54:24.795Z,638
2015-07-30T03:54:43.250Z,639
2015-07-30T03:55:02.000Z,638
2015-07-30T03:55:20.688Z,638
2015-07-30T03:55:39.283Z,638
2015-07-30T03:55:57.892Z,638
2015-07-30T03:56:16.486Z,638
2015-07-30T03:56:34.861Z,638
2015-07-30T03:56:53.491Z,639
2015-07-30T03:57:11.976Z,639
2015-07-30T03:57:30.538Z,639
2015-07-30T03:57:49.211Z,639
2015-07-30T03:58:07.649Z,638
2015-07-30T03:58:26.336Z,639
2015-07-30T03:58:44.758Z,638
2015-07-30T03:59:03.230Z,638
2015-07-30T03:59:21.746Z,638
2015-07-30T03:59:40.121Z,638
2015-07-30T03:59:58.664Z,638
2015-07-30T04:00:17.273Z,638
2015-07-30T04:00:35.882Z,638
2015-07-30T04:00:54.492Z,638
2015-07-30T04:01:13.121Z,638
2015-07-30T04:01:31.684Z,638
2015-07-30T04:01:49.980Z,638
2015-07-30T04:02:08.748Z,638
2015-07-30T04:02:27.233Z,638
2015-07-30T04:02:45.936Z,639
2015-07-30T04:03:04.577Z,639
2015-07-30T04:03:23.081Z,639
2015-07-30T04:03:41.487Z,638
2015-07-30T04:04:00.284Z,638
2015-07-30T04:04:18.879Z,639
2015-07-30T04:04:37.254Z,638
2015-07-30T04:04:55.754Z,639
2015-07-30T04:05:14.489Z,639
2015-07-30T04:05:33.206Z,638
2015-07-30T04:05:51.753Z,638
2015-07-30T04:06:10.315Z,638
2015-07-30T04:06:29.012Z,638
2015-07-30T04:06:47.480Z,638
2015-07-30T04:07:05.902Z,638
2015-07-30T04:07:24.340Z,638
2015-07-30T04:07:43.066Z,638
2015-07-30T04:08:01.504Z,638
2015-07-30T04:08:20.082Z,638
2015-07-30T04:08:38.574Z,638
2015-07-30T04:08:57.356Z,638
2015-07-30T04:09:15.918Z,638
2015-07-30T04:09:34.371Z,638
2015-07-30T04:09:52.755Z,638
2015-07-30T04:10:11.162Z,638
2015-07-30T04:10:29.708Z,639
2015-07-30T04:10:48.120Z,638
2015-07-30T04:11:06.620Z,638
2015-07-30T04:11:25.135Z,638
2015-07-30T04:11:43.573Z,638
2015-07-30T04:12:02.139Z,638
2015-07-30T04:12:20.624Z,638
2015-07-30T04:12:39.046Z,638
2015-07-30T04:12:57.628Z,638
2015-07-30T04:13:16.237Z,638
2015-07-30T04:13:34.753Z,638
2015-07-30T04:13:53.331Z,638
2015-07-30T04:14:11.788Z,638
2015-07-30T04:14:30.319Z,638
2015-07-30T04:14:48.804Z,638
2015-07-30T04:15:07.214Z,638
2015-07-30T04:15:25.792Z,638
2015-07-30T04:15:43.886Z,638